Mount Zion, Georgia
Current Conditions -  °F | °C
As of 8:35 AM on Saturday 20 Dec 2014 (Local Time) from KCTJ Reporting Station
Overcast Overcast  
Wind Chill: 38°   Ceiling: 900
Heat Index: 41°   Visibility: 7mi
Dew Point: 41°   Wind: 5mph
Humidity: 100%   Direction: 340°NNW
Pressure: 30.22"   Gusts: NA
Location:  33.63°N, 85.19°W
Report Text: KCTJ 201335Z AUTO 34004KT 7SM BKN009 OVC028 05/05 A3022 RMK AO2
Loading
Personal Weather Stations






























Interactive Weather Map New forecast layout! Learn more

10-Day Weather Forecast

Advertisements
Track Severe Weather on mobile